createdAt,value
2018-12-13T00:01:54.919Z,101789.42
2018-12-13T00:04:24.421Z,101780.31
2018-12-13T00:06:54.199Z,101785.98
2018-12-13T00:09:23.899Z,101775.15
2018-12-13T00:11:53.439Z,101768.64
2018-12-13T00:14:22.906Z,101773.43
2018-12-13T00:16:52.214Z,101762.11
2018-12-13T00:19:21.604Z,101755.59
2018-12-13T00:22:08.240Z,101760.81
2018-12-13T00:24:40.885Z,101751.28
2018-12-13T00:27:10.165Z,101753.47
2018-12-13T00:29:39.605Z,101749.09
2018-12-13T00:32:08.864Z,101745.63
2018-12-13T00:34:38.218Z,101741.70
2018-12-13T00:37:07.635Z,101740.84
2018-12-13T00:39:37.023Z,101746.52
2018-12-13T00:42:06.212Z,101737.41
2018-12-13T00:44:35.404Z,101747.83
2018-12-13T00:47:04.741Z,101731.34
2018-12-13T00:49:34.033Z,101741.34
2018-12-13T00:52:03.378Z,101739.59
2018-12-13T00:54:32.578Z,101740.03
2018-12-13T00:57:01.787Z,101740.03
2018-12-13T00:59:32.783Z,101740.45
2018-12-13T01:02:02.194Z,101740.03
2018-12-13T01:04:31.388Z,101735.25
2018-12-13T01:07:00.652Z,101730.47
2018-12-13T01:09:29.799Z,101726.55
2018-12-13T01:11:59.046Z,101730.46
2018-12-13T01:14:29.024Z,101728.73
2018-12-13T01:16:58.349Z,101730.92
2018-12-13T01:19:27.832Z,101728.73
2018-12-13T01:21:57.157Z,101726.13
2018-12-13T01:24:26.383Z,101722.64
2018-12-13T01:26:56.232Z,101727.85
2018-12-13T01:29:25.399Z,101726.11
2018-12-13T01:31:54.769Z,101722.64
2018-12-13T01:34:24.814Z,101733.08
2018-12-13T01:36:54.153Z,101729.98
2018-12-13T01:39:23.465Z,101733.47
2018-12-13T01:41:52.850Z,101732.16
2018-12-13T01:44:22.073Z,101735.63
2018-12-13T01:47:08.292Z,101732.11
2018-12-13T01:49:40.276Z,101728.19
2018-12-13T01:52:09.632Z,101726.03
2018-12-13T01:54:39.038Z,101722.56
2018-12-13T01:57:08.563Z,101715.62
2018-12-13T01:59:37.942Z,101705.20
2018-12-13T02:02:08.391Z,101707.42
2018-12-13T02:04:37.613Z,101706.56
2018-12-13T02:07:06.936Z,101707.87
2018-12-13T02:09:36.208Z,101704.84
2018-12-13T02:12:05.586Z,101703.55
2018-12-13T02:14:34.849Z,101700.53
2018-12-13T02:17:04.537Z,101705.30
2018-12-13T02:19:33.824Z,101699.67
2018-12-13T02:22:03.526Z,101696.17
2018-12-13T02:24:33.447Z,101699.25
2018-12-13T02:27:02.747Z,101694.89
2018-12-13T02:29:32.051Z,101693.59
2018-12-13T02:32:01.593Z,101691.88
2018-12-13T02:34:30.862Z,101690.56
2018-12-13T02:37:05.929Z,101684.05
2018-12-13T02:39:32.014Z,101690.11
2018-12-13T02:42:01.255Z,101688.39
2018-12-13T02:44:30.678Z,101683.59
2018-12-13T02:46:59.990Z,101679.69
2018-12-13T02:49:29.289Z,101683.59
2018-12-13T02:51:59.845Z,101677.08
2018-12-13T02:54:29.123Z,101676.66
2018-12-13T02:56:58.481Z,101670.15
2018-12-13T02:59:29.444Z,101667.09
2018-12-13T03:01:59.097Z,101665.79
2018-12-13T03:04:28.286Z,101658.42
2018-12-13T03:06:57.596Z,101656.25
2018-12-13T03:09:27.822Z,101648.00
2018-12-13T03:11:57.222Z,101644.52
2018-12-13T03:14:26.843Z,101647.13
2018-12-13T03:16:56.182Z,101639.73
2018-12-13T03:19:25.627Z,101635.83
2018-12-13T03:21:54.928Z,101634.96
2018-12-13T03:24:24.300Z,101630.61
2018-12-13T03:26:53.529Z,101629.77
2018-12-13T03:29:23.505Z,101634.98
2018-12-13T03:31:53.062Z,101626.28
2018-12-13T03:34:22.428Z,101624.99
2018-12-13T03:36:51.649Z,101622.39
2018-12-13T03:39:21.193Z,101621.94
2018-12-13T03:41:50.671Z,101621.51
2018-12-13T03:44:20.105Z,101616.30
2018-12-13T03:46:49.751Z,101618.48
2018-12-13T03:49:19.077Z,101622.39
2018-12-13T03:51:48.285Z,101616.73
2018-12-13T03:54:17.956Z,101615.00
2018-12-13T03:56:47.196Z,101610.67
2018-12-13T03:59:16.687Z,101608.50
2018-12-13T04:01:45.888Z,101610.22
2018-12-13T04:04:15.134Z,101619.77
2018-12-13T04:06:44.600Z,101611.98
2018-12-13T04:09:13.995Z,101607.63
2018-12-13T04:11:43.315Z,101612.84
2018-12-13T04:14:12.621Z,101611.12
2018-12-13T04:16:41.938Z,101608.06
2018-12-13T04:19:11.987Z,101608.95
2018-12-13T04:21:41.359Z,101606.34
2018-12-13T04:24:10.687Z,101608.06
2018-12-13T04:26:40.026Z,101610.67
2018-12-13T04:29:12.093Z,101598.95
2018-12-13T04:31:41.419Z,101598.95
2018-12-13T04:34:10.836Z,101596.34
2018-12-13T04:36:40.332Z,101595.05
2018-12-13T04:39:10.128Z,101594.62
2018-12-13T04:41:39.471Z,101593.74
2018-12-13T04:44:08.901Z,101606.77
2018-12-13T04:46:39.594Z,101597.66
2018-12-13T04:49:09.687Z,101594.17
2018-12-13T04:51:39.392Z,101596.78
2018-12-13T04:54:08.739Z,101597.20
2018-12-13T04:56:38.236Z,101591.16
2018-12-13T04:59:08.536Z,101588.09
2018-12-13T05:01:37.986Z,101585.49
2018-12-13T05:04:08.048Z,101585.94
2018-12-13T05:06:37.295Z,101581.59
2018-12-13T05:09:08.299Z,101589.40
2018-12-13T05:11:37.698Z,101593.30
2018-12-13T05:14:08.156Z,101590.70
2018-12-13T05:16:38.595Z,101586.37
2018-12-13T05:19:09.000Z,101588.10
2018-12-13T05:21:39.122Z,101587.22
2018-12-13T05:24:09.717Z,101581.59
2018-12-13T05:26:39.008Z,101581.16
2018-12-13T05:29:08.567Z,101582.02
2018-12-13T05:31:40.488Z,101575.96
2018-12-13T05:34:09.911Z,101574.20
2018-12-13T05:36:39.313Z,101576.38
2018-12-13T05:39:09.078Z,101577.69
2018-12-13T05:41:38.708Z,101572.48
2018-12-13T05:44:08.414Z,101576.80
2018-12-13T05:46:38.688Z,101576.80
2018-12-13T05:49:08.035Z,101575.08
2018-12-13T05:51:37.392Z,101571.17
2018-12-13T05:54:09.513Z,101571.17
2018-12-13T05:56:39.131Z,101569.41
2018-12-13T05:59:08.445Z,101566.81
2018-12-13T06:01:37.894Z,101570.29
2018-12-13T06:04:07.281Z,101569.41
2018-12-13T06:06:36.801Z,101573.73
2018-12-13T06:09:08.127Z,101574.19
2018-12-13T06:11:38.002Z,101572.89
2018-12-13T06:14:07.636Z,101569.83
2018-12-13T06:16:38.230Z,101570.71
2018-12-13T06:19:07.761Z,101575.50
2018-12-13T06:21:37.278Z,101574.19
2018-12-13T06:24:06.658Z,101575.92
2018-12-13T06:26:36.293Z,101573.77
2018-12-13T06:29:05.963Z,101570.71
2018-12-13T06:31:35.715Z,101574.61
2018-12-13T06:34:07.283Z,101573.32
2018-12-13T06:36:37.363Z,101574.62
2018-12-13T06:39:08.571Z,101571.17
2018-12-13T06:41:38.126Z,101579.40
2018-12-13T06:44:07.661Z,101575.92
2018-12-13T06:46:37.947Z,101573.32
2018-12-13T06:49:07.555Z,101578.10
2018-12-13T06:51:36.850Z,101571.59
2018-12-13T06:54:06.905Z,101580.28
2018-12-13T06:56:36.864Z,101577.68
2018-12-13T06:59:07.755Z,101579.41
2018-12-13T07:01:37.344Z,101579.83
2018-12-13T07:04:08.438Z,101571.13
2018-12-13T07:06:37.937Z,101567.68
2018-12-13T07:09:09.312Z,101568.98
2018-12-13T07:11:38.719Z,101579.39
2018-12-13T07:14:08.357Z,101585.44
2018-12-13T07:16:37.768Z,101583.28
2018-12-13T07:19:07.078Z,101585.89
2018-12-13T07:21:36.891Z,101593.70
2018-12-13T07:24:06.359Z,101591.52
2018-12-13T07:26:35.623Z,101584.55
2018-12-13T07:29:05.181Z,101583.25
2018-12-13T07:31:34.417Z,101593.23
2018-12-13T07:34:04.011Z,101595.83
2018-12-13T07:36:33.471Z,101598.44
2018-12-13T07:39:03.122Z,101598.85
2018-12-13T07:41:32.486Z,101596.71
2018-12-13T07:44:01.952Z,101596.30
2018-12-13T07:46:31.494Z,101598.44
2018-12-13T07:49:00.865Z,101598.02
2018-12-13T07:51:30.060Z,101601.91
2018-12-13T07:53:59.316Z,101601.05
2018-12-13T07:56:29.306Z,101601.92
2018-12-13T07:58:58.801Z,101603.64
2018-12-13T08:01:28.121Z,101601.04
2018-12-13T08:04:04.360Z,101602.34
2018-12-13T08:06:33.540Z,101599.73
2018-12-13T08:09:03.149Z,101604.50
2018-12-13T08:11:32.579Z,101609.70
2018-12-13T08:14:03.649Z,101615.76
2018-12-13T08:16:33.016Z,101616.64
2018-12-13T08:19:04.194Z,101618.83
2018-12-13T08:21:33.446Z,101621.84
2018-12-13T08:24:03.262Z,101624.45
2018-12-13T08:26:32.722Z,101624.03
2018-12-13T08:29:02.507Z,101625.34
2018-12-13T08:31:31.719Z,101631.42
2018-12-13T08:34:01.293Z,101627.95
2018-12-13T08:36:31.470Z,101627.52
2018-12-13T08:39:00.749Z,101635.33
2018-12-13T08:41:30.152Z,101628.82
2018-12-13T08:43:59.826Z,101623.16
2018-12-13T08:46:29.336Z,101623.17
2018-12-13T08:48:59.983Z,101625.36
2018-12-13T08:51:31.087Z,101626.23
2018-12-13T08:54:01.833Z,101627.07
2018-12-13T08:56:31.209Z,101617.55
2018-12-13T08:59:00.561Z,101622.33
2018-12-13T09:01:30.067Z,101622.77
2018-12-13T09:03:59.375Z,101625.84
2018-12-13T09:06:28.858Z,101624.08
2018-12-13T09:08:58.204Z,101620.17
2018-12-13T09:11:27.749Z,101616.73
2018-12-13T09:13:57.361Z,101620.17
2018-12-13T09:16:31.507Z,101628.86
2018-12-13T09:18:59.137Z,101630.63
2018-12-13T09:21:28.466Z,101622.36
2018-12-13T09:23:57.833Z,101629.75
2018-12-13T09:26:27.581Z,101623.25
2018-12-13T09:28:56.982Z,101625.85
2018-12-13T09:31:26.381Z,101624.13
2018-12-13T09:33:56.097Z,101623.70
2018-12-13T09:36:25.754Z,101628.03
2018-12-13T09:38:55.020Z,101626.30
2018-12-13T09:41:24.400Z,101630.66
2018-12-13T09:43:54.072Z,101629.78
2018-12-13T09:46:23.457Z,101624.56
2018-12-13T09:48:53.056Z,101626.74
2018-12-13T09:51:22.937Z,101624.13
2018-12-13T09:53:52.253Z,101613.69
2018-12-13T09:56:22.350Z,101617.16
2018-12-13T09:58:51.751Z,101609.34
2018-12-13T10:01:21.226Z,101604.11
2018-12-13T10:03:50.807Z,101594.98
2018-12-13T10:06:21.393Z,101596.72
2018-12-13T10:08:50.900Z,101593.23
2018-12-13T10:11:20.301Z,101593.64
2018-12-13T10:13:49.874Z,101588.43
2018-12-13T10:16:19.410Z,101581.89
2018-12-13T10:18:48.683Z,101578.84
2018-12-13T10:21:18.462Z,101577.52
2018-12-13T10:23:49.586Z,101570.52
2018-12-13T10:26:19.201Z,101570.10
2018-12-13T10:28:49.260Z,101564.46
2018-12-13T10:31:20.333Z,101564.88
2018-12-13T10:33:49.953Z,101562.25
2018-12-13T10:36:19.518Z,101559.22
2018-12-13T10:38:53.050Z,101564.42
2018-12-13T10:41:20.487Z,101563.52
2018-12-13T10:43:50.094Z,101562.61
2018-12-13T10:46:19.507Z,101558.24
2018-12-13T10:48:49.038Z,101558.67
2018-12-13T10:51:18.322Z,101553.42
2018-12-13T10:53:48.085Z,101558.20
2018-12-13T10:56:18.781Z,101556.88
2018-12-13T10:58:49.201Z,101553.80
2018-12-13T11:01:24.491Z,101549.03
2018-12-13T11:03:54.415Z,101552.48
2018-12-13T11:06:23.675Z,101552.88
2018-12-13T11:08:59.225Z,101550.27
2018-12-13T11:11:25.637Z,101552.86
2018-12-13T11:13:56.610Z,101545.92
2018-12-13T11:16:26.267Z,101545.04
2018-12-13T11:18:55.931Z,101542.47
2018-12-13T11:21:25.298Z,101538.95
2018-12-13T11:23:54.711Z,101535.88
2018-12-13T11:26:24.037Z,101529.77
2018-12-13T11:30:02.888Z,101534.17
2018-12-13T11:32:32.393Z,101526.34
2018-12-13T11:35:02.563Z,101524.54
2018-12-13T11:37:34.367Z,101518.88
2018-12-13T11:40:06.017Z,101515.02
2018-12-13T11:42:35.431Z,101513.29
2018-12-13T11:45:05.288Z,101525.47
2018-12-13T11:47:34.832Z,101513.27
2018-12-13T11:50:05.044Z,101516.72
2018-12-13T11:52:35.242Z,101518.02
2018-12-13T11:55:18.966Z,101510.16
2018-12-13T11:57:48.321Z,101504.00
2018-12-13T12:00:19.709Z,101504.39
2018-12-13T12:02:52.892Z,101497.35
2018-12-13T12:05:22.696Z,101492.96
2018-12-13T12:07:52.012Z,101493.78
2018-12-13T12:10:22.042Z,101500.23
2018-12-13T12:12:51.419Z,101491.03
2018-12-13T12:15:20.795Z,101488.96
2018-12-13T12:17:50.095Z,101487.00
2018-12-13T12:20:19.466Z,101489.02
2018-12-13T12:22:48.872Z,101483.64
2018-12-13T12:25:18.146Z,101473.42
2018-12-13T12:27:47.551Z,101475.04
2018-12-13T12:30:16.862Z,101470.49
2018-12-13T12:32:46.255Z,101477.56
2018-12-13T12:35:15.682Z,101469.02
2018-12-13T12:37:45.962Z,101470.38
2018-12-13T12:40:15.354Z,101462.59
2018-12-13T12:42:44.910Z,101457.09
2018-12-13T12:45:14.930Z,101460.59
2018-12-13T12:47:44.447Z,101463.33
2018-12-13T12:50:13.892Z,101456.05
2018-12-13T12:52:43.301Z,101457.03
2018-12-13T12:55:12.758Z,101452.61
2018-12-13T12:57:42.061Z,101450.30
2018-12-13T13:00:13.117Z,101436.66
2018-12-13T13:02:42.865Z,101435.85
2018-12-13T13:05:12.310Z,101443.32
2018-12-13T13:07:41.842Z,101443.45
2018-12-13T13:10:11.060Z,101442.94
2018-12-13T13:12:40.818Z,101442.59
2018-12-13T13:15:10.530Z,101445.38
2018-12-13T13:17:40.011Z,101446.77
2018-12-13T13:20:09.485Z,101443.25
2018-12-13T13:22:39.002Z,101434.88
2018-12-13T13:25:08.666Z,101432.92
2018-12-13T13:27:38.328Z,101432.08
2018-12-13T13:30:07.878Z,101426.16
2018-12-13T13:32:37.639Z,101423.73
2018-12-13T13:35:07.444Z,101418.17
2018-12-13T13:37:37.724Z,101430.06
2018-12-13T13:40:07.045Z,101425.77
2018-12-13T13:42:36.502Z,101409.91
2018-12-13T13:45:06.545Z,101415.62
2018-12-13T13:47:36.050Z,101420.02
2018-12-13T13:50:06.414Z,101408.67
2018-12-13T13:52:35.767Z,101409.61
2018-12-13T13:55:05.591Z,101412.33
2018-12-13T13:57:34.916Z,101416.73
2018-12-13T14:00:05.399Z,101416.79
2018-12-13T14:02:35.345Z,101418.12
2018-12-13T14:05:04.972Z,101413.06
2018-12-13T14:07:34.173Z,101419.16
2018-12-13T14:10:04.394Z,101423.14
2018-12-13T14:12:33.873Z,101424.83
2018-12-13T14:15:03.201Z,101424.43
2018-12-13T14:17:32.580Z,101422.68
2018-12-13T14:20:01.993Z,101424.88
2018-12-13T14:22:31.524Z,101426.65
2018-12-13T14:25:00.952Z,101435.80
2018-12-13T14:27:30.694Z,101434.98
2018-12-13T14:30:00.144Z,101439.35
2018-12-13T14:32:29.628Z,101437.63
2018-12-13T14:34:59.234Z,101435.04
2018-12-13T14:37:29.004Z,101438.16
2018-12-13T14:39:58.509Z,101439.47
2018-12-13T14:42:30.458Z,101438.14
2018-12-13T14:44:59.837Z,101432.92
2018-12-13T14:47:29.283Z,101435.59
2018-12-13T14:49:59.002Z,101438.68
2018-12-13T14:52:28.282Z,101435.66
2018-12-13T14:54:58.377Z,101436.92
2018-12-13T14:57:28.437Z,101441.28
2018-12-13T14:59:57.640Z,101441.75
2018-12-13T15:02:27.064Z,101442.66
2018-12-13T15:04:56.618Z,101441.38
2018-12-13T15:07:25.978Z,101444.91
2018-12-13T15:09:55.339Z,101444.46
2018-12-13T15:12:25.264Z,101445.34
2018-12-13T15:14:54.758Z,101441.03
2018-12-13T15:17:24.002Z,101444.49
2018-12-13T15:19:53.434Z,101440.19
2018-12-13T15:22:22.823Z,101441.96
2018-12-13T15:24:52.209Z,101449.80
2018-12-13T15:27:21.520Z,101444.20
2018-12-13T15:29:51.748Z,101448.95
2018-12-13T15:32:20.964Z,101452.47
2018-12-13T15:34:50.119Z,101460.73
2018-12-13T15:37:19.523Z,101456.86
2018-12-13T15:39:48.719Z,101462.05
2018-12-13T15:42:17.954Z,101459.48
2018-12-13T15:44:47.208Z,101460.37
2018-12-13T15:47:16.658Z,101467.33
2018-12-13T15:49:46.953Z,101463.42
2018-12-13T15:52:16.358Z,101466.90
2018-12-13T15:54:52.584Z,101469.52
2018-12-13T15:57:22.384Z,101468.23
2018-12-13T15:59:52.444Z,101466.95
2018-12-13T16:02:22.153Z,101466.52
2018-12-13T16:04:51.358Z,101472.59
2018-12-13T16:07:21.618Z,101478.70
2018-12-13T16:09:51.403Z,101476.09
2018-12-13T16:12:20.983Z,101478.27
2018-12-13T16:14:50.184Z,101480.00
2018-12-13T16:17:20.293Z,101478.72
2018-12-13T16:19:50.544Z,101475.66
2018-12-13T16:22:20.129Z,101478.28
2018-12-13T16:24:49.608Z,101474.81
2018-12-13T16:27:19.628Z,101474.84
2018-12-13T16:29:49.293Z,101479.59
2018-12-13T16:32:19.750Z,101478.72
2018-12-13T16:34:49.099Z,101481.79
2018-12-13T16:37:18.451Z,101479.61
2018-12-13T16:39:47.786Z,101482.64
2018-12-13T16:42:17.090Z,101480.92
2018-12-13T16:44:46.291Z,101481.81
2018-12-13T16:47:16.002Z,101473.55
2018-12-13T16:49:45.990Z,101472.67
2018-12-13T16:52:15.318Z,101471.83
2018-12-13T16:54:44.510Z,101471.37
2018-12-13T16:57:14.408Z,101470.07
2018-12-13T16:59:43.723Z,101471.37
2018-12-13T17:02:12.943Z,101470.95
2018-12-13T17:04:42.945Z,101472.69
2018-12-13T17:07:12.396Z,101472.27
2018-12-13T17:09:41.585Z,101477.89
2018-12-13T17:12:10.956Z,101472.68
2018-12-13T17:14:40.304Z,101474.44
2018-12-13T17:17:09.584Z,101483.55
2018-12-13T17:19:38.960Z,101481.37
2018-12-13T17:22:09.654Z,101488.30
2018-12-13T17:24:39.433Z,101485.28
2018-12-13T17:27:08.791Z,101478.34
2018-12-13T17:29:38.171Z,101476.16
2018-12-13T17:32:08.500Z,101480.49
2018-12-13T17:34:37.761Z,101479.65
2018-12-13T17:37:07.063Z,101483.98
2018-12-13T17:39:36.625Z,101477.89
2018-12-13T17:42:05.985Z,101481.81
2018-12-13T17:44:35.306Z,101481.81
2018-12-13T17:47:05.461Z,101486.14
2018-12-13T17:49:35.284Z,101482.23
2018-12-13T17:52:04.607Z,101482.69
2018-12-13T17:54:34.385Z,101488.32
2018-12-13T17:57:03.731Z,101490.05
2018-12-13T17:59:33.534Z,101486.14
2018-12-13T18:02:03.346Z,101492.64
2018-12-13T18:04:33.180Z,101491.80
2018-12-13T18:07:02.371Z,101490.91
2018-12-13T18:09:32.356Z,101490.48
2018-12-13T18:12:01.722Z,101490.05
2018-12-13T18:14:30.951Z,101493.52
2018-12-13T18:17:00.124Z,101495.65
2018-12-13T18:19:29.297Z,101503.02
2018-12-13T18:21:59.671Z,101495.66
2018-12-13T18:24:29.039Z,101497.38
2018-12-13T18:26:58.280Z,101496.93
2018-12-13T18:29:28.298Z,101493.44
2018-12-13T18:31:57.632Z,101490.39
2018-12-13T18:34:26.835Z,101488.66
2018-12-13T18:36:56.601Z,101483.85
2018-12-13T18:39:26.564Z,101487.75
2018-12-13T18:41:56.677Z,101484.30
2018-12-13T18:44:26.083Z,101483.83
2018-12-13T18:46:55.377Z,101478.60
2018-12-13T18:49:25.739Z,101488.17
2018-12-13T18:51:55.106Z,101484.25
2018-12-13T18:54:24.537Z,101483.83
2018-12-13T18:56:54.140Z,101485.54
2018-12-13T18:59:24.036Z,101483.34
2018-12-13T19:01:53.566Z,101488.09
2018-12-13T19:04:24.864Z,101494.61
2018-12-13T19:06:54.459Z,101490.28
2018-12-13T19:09:23.704Z,101491.99
2018-12-13T19:11:52.958Z,101493.75
2018-12-13T19:14:23.419Z,101491.57
2018-12-13T19:16:54.987Z,101494.59
2018-12-13T19:19:26.497Z,101504.61
2018-12-13T19:21:57.311Z,101509.80
2018-12-13T19:26:59.786Z,101500.69
2018-12-13T19:29:30.255Z,101501.98
2018-12-13T19:32:01.245Z,101507.20
2018-12-13T19:34:31.693Z,101500.27
2018-12-13T19:37:02.304Z,101501.55
2018-12-13T19:39:32.938Z,101505.88
2018-12-13T19:42:02.560Z,101509.36
2018-12-13T19:44:32.140Z,101517.59
2018-12-13T19:47:01.439Z,101517.16
2018-12-13T19:49:30.841Z,101519.33
2018-12-13T19:52:00.773Z,101516.73
2018-12-13T19:54:31.721Z,101516.73
2018-12-13T19:57:00.968Z,101521.92
2018-12-13T19:59:30.482Z,101521.95
2018-12-13T20:02:00.595Z,101521.48
2018-12-13T20:04:29.891Z,101514.96
2018-12-13T20:07:00.366Z,101519.34
2018-12-13T20:09:29.594Z,101521.95
2018-12-13T20:11:59.628Z,101519.33
2018-12-13T20:14:29.761Z,101517.56
2018-12-13T20:16:59.262Z,101514.95
2018-12-13T20:19:28.561Z,101514.52
2018-12-13T20:21:58.002Z,101517.16
2018-12-13T20:24:27.236Z,101512.82
2018-12-13T20:26:56.599Z,101522.36
2018-12-13T20:29:26.453Z,101524.10
2018-12-13T20:31:56.060Z,101522.80
2018-12-13T20:34:26.073Z,101529.31
2018-12-13T20:36:55.838Z,101537.12
2018-12-13T20:39:25.029Z,101537.59
2018-12-13T20:41:55.232Z,101541.48
2018-12-13T20:44:24.558Z,101544.08
2018-12-13T20:46:53.735Z,101542.80
2018-12-13T20:49:23.007Z,101548.86
2018-12-13T20:51:52.309Z,101546.72
2018-12-13T20:54:21.535Z,101551.48
2018-12-13T20:56:51.000Z,101547.12
2018-12-13T20:59:20.906Z,101554.53
2018-12-13T21:01:50.142Z,101551.93
2018-12-13T21:04:19.309Z,101552.77
2018-12-13T21:06:52.640Z,101555.83
2018-12-13T21:09:22.086Z,101559.27
2018-12-13T21:11:51.454Z,101566.27
2018-12-13T21:14:20.809Z,101567.58
2018-12-13T21:16:50.304Z,101565.83
2018-12-13T21:19:19.546Z,101564.95
2018-12-13T21:21:48.824Z,101564.51
2018-12-13T21:24:18.766Z,101561.03
2018-12-13T21:26:48.801Z,101551.48
2018-12-13T21:29:19.320Z,101560.21
2018-12-13T21:31:49.615Z,101556.28
2018-12-13T21:34:18.992Z,101547.60
2018-12-13T21:36:48.700Z,101552.41
2018-12-13T21:39:18.418Z,101549.35
2018-12-13T21:41:47.649Z,101548.05
2018-12-13T21:44:16.913Z,101546.34
2018-12-13T21:46:46.157Z,101548.49
2018-12-13T21:49:15.915Z,101545.47
2018-12-13T21:51:45.218Z,101547.20
2018-12-13T21:54:17.020Z,101541.98
2018-12-13T21:56:46.751Z,101545.50
2018-12-13T21:59:16.049Z,101548.09
2018-12-13T22:01:45.542Z,101545.07
2018-12-13T22:04:15.432Z,101547.67
2018-12-13T22:06:44.799Z,101545.91
2018-12-13T22:09:14.058Z,101548.52
2018-12-13T22:11:45.020Z,101554.17
2018-12-13T22:14:14.391Z,101557.23
2018-12-13T22:16:43.797Z,101557.23
2018-12-13T22:19:13.122Z,101555.05
2018-12-13T22:21:42.909Z,101555.05
2018-12-13T22:24:12.573Z,101555.05
2018-12-13T22:26:42.066Z,101562.01
2018-12-13T22:29:11.338Z,101562.44
2018-12-13T22:31:40.749Z,101560.27
2018-12-13T22:34:10.076Z,101555.05
2018-12-13T22:36:39.960Z,101557.69
2018-12-13T22:39:09.248Z,101564.20
2018-12-13T22:41:40.095Z,101562.02
2018-12-13T22:44:15.536Z,101562.02
2018-12-13T22:46:48.178Z,101565.48
2018-12-13T22:49:17.527Z,101557.69
2018-12-13T22:51:46.765Z,101563.77
2018-12-13T22:54:16.006Z,101564.20
2018-12-13T22:56:45.443Z,101567.22
2018-12-13T22:59:14.747Z,101562.47
2018-12-13T23:01:44.177Z,101555.09
2018-12-13T23:04:13.434Z,101557.67
2018-12-13T23:06:42.696Z,101560.71
2018-12-13T23:09:11.982Z,101555.96
2018-12-13T23:11:41.264Z,101558.10
2018-12-13T23:14:10.869Z,101555.51
2018-12-13T23:16:40.709Z,101560.72
2018-12-13T23:19:09.939Z,101557.23
2018-12-13T23:21:39.208Z,101552.50
2018-12-13T23:24:08.448Z,101555.08
2018-12-13T23:26:37.661Z,101562.47
2018-12-13T23:29:06.988Z,101555.96
2018-12-13T23:31:36.103Z,101555.94
2018-12-13T23:34:05.429Z,101548.16
2018-12-13T23:36:34.721Z,101549.00
2018-12-13T23:39:04.884Z,101545.11
2018-12-13T23:41:39.205Z,101552.03
2018-12-13T23:44:05.298Z,101553.80
2018-12-13T23:46:34.455Z,101548.13
2018-12-13T23:49:03.777Z,101548.98
2018-12-13T23:51:32.920Z,101545.55
2018-12-13T23:54:02.432Z,101546.83
2018-12-13T23:56:31.695Z,101548.13
2018-12-13T23:59:01.244Z,101545.98
